Total volume
$8,375
Trades
470
Unique wallets
292
Liquidity
$9,090
Latest YES mid
67¢
Latest NO mid
33¢
End date
2026-05-07
First seen
2026-05-07
last 05-07 04:13
Cohort breakdown
who's buying — by wallet tier SMI: -50.5¢ (top1%: 32% YES on $1.2K vs crowd: 82% YES on $7.7K)
By volume tier
Tier Wallets YES buy NO buy Net bias
🐬 Dolphin 3 $21 $12 +$9
🐟 Fish 17 $974 $913 +$60
🦐 Shrimp 272 $5.4K $452 +$4.9K
By P&L percentile
Tier Wallets YES buy NO buy Net bias
🎯 Top 1% 22 $378 $816 $437
🏆 Top 5% 38 $1.3K $103 +$1.2K
✅ Top 10% 23 $659 $63 +$596
Median 46 $326 $0 +$326
Below median 51 $745 +$745
⚠️ Bottom 10% 30 $222 $9 +$213
🔻 Bottom 5% 21 $546 $21 +$525
💀 Bottom 1% 7 $278 $322 $44
unranked 54 $1.9K $43 +$1.8K
Wallet Side Net shares Cost basis Volume Trades Last activity
Exciting-Placement 0xb110…39f4 Down +5,418 $500 $500 4 05-07 04:13
Long-Term-Siege 0xc5d5…6caa Down +1,550 $242 $242 4 05-07 04:13
Spotted-Surroundings 0xfe21…1969 Up +1,340 $1,300 $1,300 1 05-07 04:13
Stiff-Blackberry 0x10c9…e999 Down +616 $67 $67 6 05-07 04:13
Pricey-Maker 0x94f4…77a2 Down +603 $91 $91 6 05-07 04:13
Famous-Speedboat 0x6d9f…5568 Down +563 $72 $72 4 05-07 04:13
Visible-Depth 0x23f5…7a6e Down +535 $56 $56 3 05-07 04:13
Scaly-Plenty 0x04e2…02be Up +425 $400 $400 1 05-07 04:13
Leading-Raid 0x5482…23cd Down +421 $39 $39 4 05-07 04:13
Awesome-Vengeance 0x5e2f…f9ba Down +419 $54 $54 4 05-07 04:13
Soulful-Stucco 0x8a72…3b30 Down +300 $13 $13 2 05-07 04:13
Empty-Nightmare 0xfce5…94da Down +297 $23 $23 2 05-07 04:13
Double-Accountability 0x8676…42d0 Down +293 $9 $11 2 05-07 04:13
(anonymous) 0xe907…cff6 Down +241 $8 $8 2 05-07 04:13
Insecure-Matrix 0xfd09…0914 Up +222 $220 $220 1 05-07 04:13
Bulky-Bracket 0xabc2…7048 Down +204 $31 $31 7 05-07 04:13
Noisy-Death 0x2eb8…310f Up +200 $196 $196 1 05-07 04:13
(anonymous) 0xc6a6…f003 Up +187 $155 $155 1 05-07 04:13
Embarrassed-Lymphocyte 0xf82a…d221 Down +185 $28 $28 5 05-07 04:13
Neat-Blind 0x82e8…200b Up +175 $168 $168 2 05-07 04:13
Rotten-Neuron 0x942d…278e Down +171 $9 $9 2 05-07 04:13
Wordy-Biosphere 0xa689…559b Up +160 $155 $155 1 05-07 04:13
Dutiful-Psychologist 0x5f6d…976f Up +152 $145 $145 1 05-07 04:13
Mad-Plot 0x2709…20f5 Up +148 $127 $127 8 05-07 04:13
Deep-Observatory 0xc131…f5d5 Down +148 $22 $22 7 05-07 04:13
Lively-Authenticity 0xb55f…64d4 Down +123 $4 $4 2 05-07 04:13
Unsung-Cinnamon 0xd580…5203 Up +115 $113 $113 1 05-07 04:13
Cautious-Indicator 0xf6b1…14be Up +107 $105 $105 1 05-07 04:13
Expert-Minimum 0x4d0d…dc73 Up +105 $100 $100 1 05-07 04:13
Superb-Gum 0x43e9…44b3 Up +105 $100 $100 1 05-07 04:13
Average-Alpenhorn 0x88da…3c8f Up +104 $86 $86 1 05-07 04:13
High-Level-Sir 0x7f5d…de70 Up +103 $99 $99 1 05-07 04:13
Leafy-Spotlight 0xeac7…953d Up +102 $100 $100 1 05-07 04:13
New-Nylon 0x603b…c9c9 Up +102 $100 $100 1 05-07 04:13
Uniform-Assumption 0x6b86…7d21 Up +102 $99 $99 1 05-07 04:13
Shadowy-Bathrobe 0x09cc…3b7b Up +97 $95 $95 1 05-07 04:13
Queasy-Thrift 0x02fe…a6f3 Up +95 $83 $83 2 05-07 04:13
Acrobatic-Phone 0x6bbe…5029 Down +93 $15 $15 2 05-07 04:13
Mad-Plot 0x2709…20f5 Down +92 $5 $5 4 05-07 04:13
Glossy-Liberty 0x914c…036b Up +90 $89 $89 9 05-07 04:13
Exalted-Mattress 0xa8cc…41a9 Up +84 $82 $82 1 05-07 04:13
Intelligent-Demand-Stress 0x7fbd…651c Up +83 $70 $70 1 05-07 04:13
Knowledgeable-Salt 0x8dd3…c142 Up +75 $72 $72 1 05-07 04:13
Enraged-Ox 0x2c30…2420 Up +75 $72 $72 15 05-07 04:13
Light-Contrast 0xbf8d…c93a Down +70 $4 $4 2 05-07 04:13
Physical-Competence 0xfa67…d948 Down +69 $12 $12 1 05-07 04:13
Frail-City 0x6d7a…bc5c Up +63 $60 $60 1 05-07 04:13
Familiar-Director 0x6b62…33d9 Up +60 $59 $59 1 05-07 04:13
Old-Microwave 0xc1aa…1ae3 Down +60 $2 $2 1 05-07 04:13
Vivid-Plain 0x5b67…1c47 Down +60 $5 $5 1 05-07 04:13
Envious-Teen 0x7bc7…51ad Down +59 $2 $2 1 05-07 04:13
Eager-Latitude 0x100b…3f1e Up +58 $57 $57 1 05-07 04:13
Worldly-Enactment 0x1385…8e19 Down +57 $10 $10 2 05-07 04:13
Knowing-Pinto 0x4dbb…5965 Up +57 $30 $30 1 05-07 04:08
Distorted-Subject 0xe844…d224 Up +50 $50 $50 1 05-07 04:13
Infantile-Outfielder 0xabb7…df91 Down +44 $2 $2 2 05-07 04:13
Organic-Tract 0x5fef…ee82 Down +40 $2 $2 2 05-07 04:13
Useful-Cadet 0xbd01…53cf Down +35 $1 $1 1 05-07 04:13
Left-Sovereignty 0xf32c…a001 Down +33 $1 $1 1 05-07 04:13
Assured-Depth 0x1beb…9c1d Down +33 $1 $1 1 05-07 04:13